sensor_id;sensor_type;location;lat;lon;timestamp;pressure;altitude;pressure_sealevel;temperature;humidity
31717;BME280;18301;51.076;17.046;2022-12-24T00:02:06;98938.25;;;8.64;100.00
31717;BME280;18301;51.076;17.046;2022-12-24T00:07:08;98923.28;;;8.71;100.00
31717;BME280;18301;51.076;17.046;2022-12-24T00:12:10;98924.00;;;8.73;100.00
31717;BME280;18301;51.076;17.046;2022-12-24T00:17:11;98917.34;;;8.77;100.00
31717;BME280;18301;51.076;17.046;2022-12-24T00:22:13;98920.91;;;8.78;100.00
31717;BME280;18301;51.076;17.046;2022-12-24T00:27:15;98935.75;;;8.72;99.93
31717;BME280;18301;51.076;17.046;2022-12-24T00:32:16;98909.56;;;8.74;100.00
31717;BME280;18301;51.076;17.046;2022-12-24T00:37:17;98920.31;;;8.74;99.73
31717;BME280;18301;51.076;17.046;2022-12-24T00:42:19;98929.34;;;8.63;100.00
31717;BME280;18301;51.076;17.046;2022-12-24T00:47:21;98929.81;;;8.68;100.00
31717;BME280;18301;51.076;17.046;2022-12-24T00:52:22;98936.03;;;8.69;99.99
31717;BME280;18301;51.076;17.046;2022-12-24T00:57:24;98944.19;;;8.58;99.99
31717;BME280;18301;51.076;17.046;2022-12-24T01:02:25;98956.63;;;8.59;99.77
31717;BME280;18301;51.076;17.046;2022-12-24T01:07:27;98945.47;;;8.53;100.00
31717;BME280;18301;51.076;17.046;2022-12-24T01:12:28;98941.59;;;8.46;100.00
31717;BME280;18301;51.076;17.046;2022-12-24T01:17:31;98949.84;;;8.55;100.00
31717;BME280;18301;51.076;17.046;2022-12-24T01:22:33;98932.84;;;8.44;100.00
31717;BME280;18301;51.076;17.046;2022-12-24T01:27:35;98942.19;;;8.50;100.00
31717;BME280;18301;51.076;17.046;2022-12-24T01:32:36;98930.56;;;8.49;100.00
31717;BME280;18301;51.076;17.046;2022-12-24T01:37:38;98929.75;;;8.59;100.00
31717;BME280;18301;51.076;17.046;2022-12-24T01:42:43;98914.16;;;8.52;100.00
31717;BME280;18301;51.076;17.046;2022-12-24T01:48:04;98932.44;;;8.59;100.00
31717;BME280;18301;51.076;17.046;2022-12-24T01:53:10;98952.97;;;8.60;100.00
31717;BME280;18301;51.076;17.046;2022-12-24T01:58:15;98946.75;;;8.59;100.00
31717;BME280;18301;51.076;17.046;2022-12-24T02:03:18;98934.25;;;8.48;100.00
31717;BME280;18301;51.076;17.046;2022-12-24T02:08:20;98917.25;;;8.38;100.00
31717;BME280;18301;51.076;17.046;2022-12-24T02:13:22;98926.78;;;8.31;100.00
31717;BME280;18301;51.076;17.046;2022-12-24T02:18:41;98927.78;;;8.30;100.00
31717;BME280;18301;51.076;17.046;2022-12-24T02:24:16;98918.00;;;8.19;100.00
31717;BME280;18301;51.076;17.046;2022-12-24T02:29:48;98913.47;;;8.20;100.00
31717;BME280;18301;51.076;17.046;2022-12-24T02:35:07;98914.34;;;8.30;100.00
31717;BME280;18301;51.076;17.046;2022-12-24T02:40:23;98921.56;;;8.29;100.00
31717;BME280;18301;51.076;17.046;2022-12-24T02:45:30;98912.47;;;8.21;100.00
31717;BME280;18301;51.076;17.046;2022-12-24T02:50:32;98926.47;;;8.24;100.00
31717;BME280;18301;51.076;17.046;2022-12-24T02:55:58;98926.19;;;8.27;100.00
31717;BME280;18301;51.076;17.046;2022-12-24T03:01:18;98920.88;;;8.37;100.00
31717;BME280;18301;51.076;17.046;2022-12-24T03:06:33;98928.00;;;8.38;100.00
31717;BME280;18301;51.076;17.046;2022-12-24T03:11:45;98928.22;;;8.35;100.00
31717;BME280;18301;51.076;17.046;2022-12-24T03:16:49;98929.94;;;8.36;100.00
31717;BME280;18301;51.076;17.046;2022-12-24T03:21:50;98931.75;;;8.36;100.00
31717;BME280;18301;51.076;17.046;2022-12-24T03:26:55;98929.44;;;8.21;100.00
31717;BME280;18301;51.076;17.046;2022-12-24T03:32:02;98925.63;;;8.24;100.00
31717;BME280;18301;51.076;17.046;2022-12-24T03:37:04;98931.03;;;8.34;100.00
31717;BME280;18301;51.076;17.046;2022-12-24T03:42:05;98943.16;;;8.28;100.00
31717;BME280;18301;51.076;17.046;2022-12-24T03:47:07;98935.28;;;8.36;100.00
31717;BME280;18301;51.076;17.046;2022-12-24T03:52:08;98941.31;;;8.49;100.00
31717;BME280;18301;51.076;17.046;2022-12-24T03:57:10;98948.72;;;8.57;100.00
31717;BME280;18301;51.076;17.046;2022-12-24T04:02:11;98952.72;;;8.72;100.00
31717;BME280;18301;51.076;17.046;2022-12-24T04:07:13;98954.50;;;8.93;100.00
31717;BME280;18301;51.076;17.046;2022-12-24T04:12:14;98954.50;;;9.03;100.00
31717;BME280;18301;51.076;17.046;2022-12-24T04:17:16;98949.97;;;9.13;100.00
31717;BME280;18301;51.076;17.046;2022-12-24T04:22:18;98947.59;;;9.19;100.00
31717;BME280;18301;51.076;17.046;2022-12-24T04:27:19;98961.91;;;9.39;100.00
31717;BME280;18301;51.076;17.046;2022-12-24T04:32:28;98961.06;;;9.49;100.00
31717;BME280;18301;51.076;17.046;2022-12-24T04:37:30;98961.06;;;9.49;100.00
31717;BME280;18301;51.076;17.046;2022-12-24T04:42:31;98961.91;;;9.59;100.00
31717;BME280;18301;51.076;17.046;2022-12-24T04:47:32;98971.97;;;9.57;100.00
31717;BME280;18301;51.076;17.046;2022-12-24T04:52:34;98968.31;;;9.58;100.00
31717;BME280;18301;51.076;17.046;2022-12-24T04:57:35;98965.03;;;9.64;100.00
31717;BME280;18301;51.076;17.046;2022-12-24T05:02:38;98966.00;;;9.63;100.00
31717;BME280;18301;51.076;17.046;2022-12-24T05:07:39;98984.59;;;9.66;100.00
31717;BME280;18301;51.076;17.046;2022-12-24T05:12:41;98984.00;;;9.72;100.00
31717;BME280;18301;51.076;17.046;2022-12-24T05:17:42;98978.34;;;9.95;100.00
31717;BME280;18301;51.076;17.046;2022-12-24T05:22:44;98984.44;;;9.77;100.00
31717;BME280;18301;51.076;17.046;2022-12-24T05:28:04;99002.31;;;9.78;100.00
31717;BME280;18301;51.076;17.046;2022-12-24T05:33:05;99001.63;;;9.76;100.00
31717;BME280;18301;51.076;17.046;2022-12-24T05:38:07;99010.66;;;9.85;100.00
31717;BME280;18301;51.076;17.046;2022-12-24T05:43:09;99018.03;;;9.93;100.00
31717;BME280;18301;51.076;17.046;2022-12-24T05:48:10;99018.31;;;9.89;100.00
31717;BME280;18301;51.076;17.046;2022-12-24T05:53:12;99025.69;;;9.87;100.00
31717;BME280;18301;51.076;17.046;2022-12-24T05:58:13;99030.78;;;10.00;100.00
31717;BME280;18301;51.076;17.046;2022-12-24T06:03:15;99034.63;;;10.17;100.00
31717;BME280;18301;51.076;17.046;2022-12-24T06:08:16;99041.00;;;10.06;100.00
31717;BME280;18301;51.076;17.046;2022-12-24T06:13:18;99042.84;;;10.06;100.00
31717;BME280;18301;51.076;17.046;2022-12-24T06:18:20;99042.16;;;10.04;100.00
31717;BME280;18301;51.076;17.046;2022-12-24T06:23:22;99057.31;;;10.05;100.00
31717;BME280;18301;51.076;17.046;2022-12-24T06:28:24;99057.75;;;10.20;100.00
31717;BME280;18301;51.076;17.046;2022-12-24T06:33:25;99066.97;;;10.17;100.00
31717;BME280;18301;51.076;17.046;2022-12-24T06:38:30;99080.16;;;10.20;100.00
31717;BME280;18301;51.076;17.046;2022-12-24T06:43:32;99084.97;;;10.17;100.00
31717;BME280;18301;51.076;17.046;2022-12-24T06:48:36;99100.19;;;10.27;99.80
31717;BME280;18301;51.076;17.046;2022-12-24T06:53:37;99108.09;;;10.09;100.00
31717;BME280;18301;51.076;17.046;2022-12-24T06:58:40;99118.75;;;10.21;99.98
31717;BME280;18301;51.076;17.046;2022-12-24T07:03:41;99124.41;;;10.08;100.00
31717;BME280;18301;51.076;17.046;2022-12-24T07:08:43;99143.00;;;10.11;100.00
31717;BME280;18301;51.076;17.046;2022-12-24T07:13:45;99154.22;;;10.16;100.00
31717;BME280;18301;51.076;17.046;2022-12-24T07:18:47;99153.50;;;10.14;100.00
31717;BME280;18301;51.076;17.046;2022-12-24T07:23:48;99176.63;;;10.07;100.00
31717;BME280;18301;51.076;17.046;2022-12-24T07:28:50;99199.31;;;10.14;100.00
31717;BME280;18301;51.076;17.046;2022-12-24T07:33:51;99214.94;;;10.20;100.00
31717;BME280;18301;51.076;17.046;2022-12-24T07:38:53;99223.69;;;10.03;100.00
31717;BME280;18301;51.076;17.046;2022-12-24T07:43:54;99232.94;;;10.10;100.00
31717;BME280;18301;51.076;17.046;2022-12-24T07:48:56;99243.84;;;10.08;100.00
31717;BME280;18301;51.076;17.046;2022-12-24T07:53:58;99252.22;;;10.05;100.00
31717;BME280;18301;51.076;17.046;2022-12-24T07:58:59;99264.31;;;10.11;100.00
31717;BME280;18301;51.076;17.046;2022-12-24T08:04:01;99274.22;;;10.10;100.00
31717;BME280;18301;51.076;17.046;2022-12-24T08:09:03;99280.75;;;10.08;100.00
31717;BME280;18301;51.076;17.046;2022-12-24T08:14:04;99291.53;;;10.08;100.00
31717;BME280;18301;51.076;17.046;2022-12-24T08:19:06;99307.03;;;9.85;100.00
31717;BME280;18301;51.076;17.046;2022-12-24T08:24:07;99309.06;;;9.93;100.00
31717;BME280;18301;51.076;17.046;2022-12-24T08:29:08;99322.94;;;9.88;100.00
31717;BME280;18301;51.076;17.046;2022-12-24T08:34:10;99332.91;;;9.97;100.00
31717;BME280;18301;51.076;17.046;2022-12-24T08:39:11;99335.81;;;9.84;100.00
31717;BME280;18301;51.076;17.046;2022-12-24T08:44:13;99359.91;;;9.55;100.00
31717;BME280;18301;51.076;17.046;2022-12-24T08:49:15;99367.47;;;9.82;100.00
31717;BME280;18301;51.076;17.046;2022-12-24T08:54:16;99368.31;;;9.62;100.00
31717;BME280;18301;51.076;17.046;2022-12-24T08:59:18;99377.88;;;9.76;100.00
31717;BME280;18301;51.076;17.046;2022-12-24T09:04:19;99388.13;;;9.82;100.00
31717;BME280;18301;51.076;17.046;2022-12-24T09:09:21;99402.16;;;9.55;100.00
31717;BME280;18301;51.076;17.046;2022-12-24T09:14:22;99396.34;;;9.38;100.00
31717;BME280;18301;51.076;17.046;2022-12-24T09:19:24;99392.34;;;9.75;100.00
31717;BME280;18301;51.076;17.046;2022-12-24T09:24:25;99399.31;;;9.77;100.00
31717;BME280;18301;51.076;17.046;2022-12-24T09:29:27;99418.44;;;9.74;100.00
31717;BME280;18301;51.076;17.046;2022-12-24T09:34:28;99409.66;;;10.03;100.00
31717;BME280;18301;51.076;17.046;2022-12-24T09:39:31;99425.94;;;9.91;100.00
31717;BME280;18301;51.076;17.046;2022-12-24T09:44:56;99435.66;;;10.04;100.00
31717;BME280;18301;51.076;17.046;2022-12-24T09:50:02;99445.50;;;9.94;100.00
31717;BME280;18301;51.076;17.046;2022-12-24T09:55:14;99466.13;;;9.62;100.00
31717;BME280;18301;51.076;17.046;2022-12-24T10:00:27;99469.22;;;9.79;100.00
31717;BME280;18301;51.076;17.046;2022-12-24T10:05:42;99472.84;;;9.68;100.00
31717;BME280;18301;51.076;17.046;2022-12-24T10:10:51;99468.91;;;9.93;99.65
31717;BME280;18301;51.076;17.046;2022-12-24T10:16:02;99489.28;;;9.65;100.00
31717;BME280;18301;51.076;17.046;2022-12-24T10:21:14;99506.38;;;9.96;99.73
31717;BME280;18301;51.076;17.046;2022-12-24T10:26:44;99510.44;;;9.90;99.85
31717;BME280;18301;51.076;17.046;2022-12-24T10:31:55;99515.50;;;9.84;99.79
31717;BME280;18301;51.076;17.046;2022-12-24T10:36:59;99522.19;;;9.68;100.00
31717;BME280;18301;51.076;17.046;2022-12-24T10:42:04;99534.06;;;9.66;100.00
31717;BME280;18301;51.076;17.046;2022-12-24T10:47:08;99536.31;;;9.61;100.00
31717;BME280;18301;51.076;17.046;2022-12-24T10:52:13;99553.47;;;9.81;100.00
31717;BME280;18301;51.076;17.046;2022-12-24T10:57:24;99558.03;;;9.80;100.00
31717;BME280;18301;51.076;17.046;2022-12-24T11:02:32;99562.22;;;9.73;100.00
31717;BME280;18301;51.076;17.046;2022-12-24T11:07:34;99568.72;;;9.71;100.00
31717;BME280;18301;51.076;17.046;2022-12-24T11:12:39;99564.09;;;9.61;100.00
31717;BME280;18301;51.076;17.046;2022-12-24T11:17:41;99579.91;;;9.87;100.00
31717;BME280;18301;51.076;17.046;2022-12-24T11:22:48;99576.75;;;9.50;100.00
31717;BME280;18301;51.076;17.046;2022-12-24T11:27:50;99594.59;;;9.62;100.00
31717;BME280;18301;51.076;17.046;2022-12-24T11:33:16;99588.25;;;9.52;100.00
31717;BME280;18301;51.076;17.046;2022-12-24T11:38:21;99595.56;;;9.61;100.00
31717;BME280;18301;51.076;17.046;2022-12-24T11:43:23;99613.19;;;9.65;100.00
31717;BME280;18301;51.076;17.046;2022-12-24T11:48:32;99607.03;;;9.74;100.00
31717;BME280;18301;51.076;17.046;2022-12-24T11:59:21;99633.22;;;9.83;100.00
31717;BME280;18301;51.076;17.046;2022-12-24T12:04:28;99631.97;;;9.87;100.00
31717;BME280;18301;51.076;17.046;2022-12-24T12:09:37;99627.56;;;9.86;100.00
31717;BME280;18301;51.076;17.046;2022-12-24T12:14:47;99636.13;;;9.91;100.00
31717;BME280;18301;51.076;17.046;2022-12-24T12:19:57;99646.19;;;9.78;100.00
31717;BME280;18301;51.076;17.046;2022-12-24T12:25:02;99654.53;;;9.86;100.00
31717;BME280;18301;51.076;17.046;2022-12-24T12:30:13;99667.50;;;9.81;100.00
31717;BME280;18301;51.076;17.046;2022-12-24T12:35:33;99671.84;;;10.05;99.89
31717;BME280;18301;51.076;17.046;2022-12-24T12:46:20;99665.72;;;10.03;97.77
31717;BME280;18301;51.076;17.046;2022-12-24T12:51:49;99679.19;;;10.14;96.83
31717;BME280;18301;51.076;17.046;2022-12-24T12:56:57;99680.53;;;10.08;95.87
31717;BME280;18301;51.076;17.046;2022-12-24T13:18:29;99717.84;;;10.24;93.33
31717;BME280;18301;51.076;17.046;2022-12-24T13:23:34;99727.44;;;10.17;93.05
31717;BME280;18301;51.076;17.046;2022-12-24T13:28:36;99729.72;;;10.01;94.02
31717;BME280;18301;51.076;17.046;2022-12-24T13:49:17;99750.03;;;9.94;93.78
31717;BME280;18301;51.076;17.046;2022-12-24T13:54:23;99758.34;;;10.13;91.99
31717;BME280;18301;51.076;17.046;2022-12-24T13:59:33;99752.97;;;10.13;88.46
31717;BME280;18301;51.076;17.046;2022-12-24T14:04:39;99758.44;;;10.23;88.68
31717;BME280;18301;51.076;17.046;2022-12-24T14:09:47;99771.06;;;10.33;88.57
31717;BME280;18301;51.076;17.046;2022-12-24T14:14:50;99775.13;;;10.17;88.58
31717;BME280;18301;51.076;17.046;2022-12-24T14:19:54;99784.56;;;10.22;87.51
31717;BME280;18301;51.076;17.046;2022-12-24T14:24:59;99785.06;;;10.16;88.03
31717;BME280;18301;51.076;17.046;2022-12-24T14:30:08;99779.16;;;10.22;88.23
31717;BME280;18301;51.076;17.046;2022-12-24T14:40:24;99805.19;;;9.89;87.14
31717;BME280;18301;51.076;17.046;2022-12-24T14:51:06;99837.28;;;9.81;86.41
31717;BME280;18301;51.076;17.046;2022-12-24T14:56:15;99844.38;;;9.82;85.88
31717;BME280;18301;51.076;17.046;2022-12-24T15:06:23;99856.38;;;9.78;85.50
31717;BME280;18301;51.076;17.046;2022-12-24T15:11:25;99872.28;;;9.59;85.18
31717;BME280;18301;51.076;17.046;2022-12-24T15:16:34;99884.09;;;9.34;86.17
31717;BME280;18301;51.076;17.046;2022-12-24T15:21:38;99899.78;;;9.40;86.45
31717;BME280;18301;51.076;17.046;2022-12-24T15:26:43;99898.19;;;9.37;87.03
31717;BME280;18301;51.076;17.046;2022-12-24T15:31:45;99913.09;;;9.30;87.18
31717;BME280;18301;51.076;17.046;2022-12-24T15:36:46;99906.97;;;9.28;87.09
31717;BME280;18301;51.076;17.046;2022-12-24T15:41:48;99911.38;;;9.29;87.90
31717;BME280;18301;51.076;17.046;2022-12-24T15:47:15;99905.50;;;9.35;87.94
31717;BME280;18301;51.076;17.046;2022-12-24T15:52:20;99901.25;;;9.44;87.95
31717;BME280;18301;51.076;17.046;2022-12-24T15:57:32;99920.97;;;9.44;88.28
31717;BME280;18301;51.076;17.046;2022-12-24T16:02:36;99920.63;;;9.49;87.74
31717;BME280;18301;51.076;17.046;2022-12-24T16:07:39;99929.19;;;9.54;87.82
31717;BME280;18301;51.076;17.046;2022-12-24T16:13:20;99931.78;;;9.56;86.71
31717;BME280;18301;51.076;17.046;2022-12-24T16:18:27;99936.28;;;9.44;86.77
31717;BME280;18301;51.076;17.046;2022-12-24T16:23:38;99944.72;;;9.51;86.38
31717;BME280;18301;51.076;17.046;2022-12-24T16:28:46;99951.63;;;9.55;85.80
31717;BME280;18301;51.076;17.046;2022-12-24T16:33:59;99966.78;;;9.56;85.84
31717;BME280;18301;51.076;17.046;2022-12-24T16:39:01;99975.34;;;9.50;86.42
31717;BME280;18301;51.076;17.046;2022-12-24T16:44:21;99981.13;;;9.56;86.36
31717;BME280;18301;51.076;17.046;2022-12-24T16:49:23;99988.16;;;9.70;86.04
31717;BME280;18301;51.076;17.046;2022-12-24T16:54:24;99991.31;;;9.64;86.86
31717;BME280;18301;51.076;17.046;2022-12-24T16:59:26;99998.59;;;9.51;86.27
31717;BME280;18301;51.076;17.046;2022-12-24T17:04:30;100003.53;;;9.57;87.13
31717;BME280;18301;51.076;17.046;2022-12-24T17:09:31;100013.50;;;9.43;87.26
31717;BME280;18301;51.076;17.046;2022-12-24T17:14:34;100004.44;;;9.44;87.52
31717;BME280;18301;51.076;17.046;2022-12-24T17:19:35;100004.22;;;9.48;87.63
31717;BME280;18301;51.076;17.046;2022-12-24T17:24:37;100008.66;;;9.49;87.43
31717;BME280;18301;51.076;17.046;2022-12-24T17:29:38;100022.69;;;9.41;87.66
31717;BME280;18301;51.076;17.046;2022-12-24T17:34:40;100015.44;;;9.41;87.17
31717;BME280;18301;51.076;17.046;2022-12-24T17:39:41;100028.19;;;9.39;87.24
31717;BME280;18301;51.076;17.046;2022-12-24T17:44:43;100040.28;;;9.34;87.82
31717;BME280;18301;51.076;17.046;2022-12-24T17:49:45;100042.84;;;9.35;87.92
31717;BME280;18301;51.076;17.046;2022-12-24T17:54:46;100042.63;;;9.38;87.87
31717;BME280;18301;51.076;17.046;2022-12-24T17:59:47;100051.69;;;9.37;87.60
31717;BME280;18301;51.076;17.046;2022-12-24T18:04:49;100054.66;;;9.45;87.37
31717;BME280;18301;51.076;17.046;2022-12-24T18:09:50;100070.84;;;9.45;86.94
31717;BME280;18301;51.076;17.046;2022-12-24T18:14:52;100078.56;;;9.50;86.39
31717;BME280;18301;51.076;17.046;2022-12-24T18:19:54;100093.41;;;9.56;86.23
31717;BME280;18301;51.076;17.046;2022-12-24T18:24:55;100100.50;;;9.57;84.98
31717;BME280;18301;51.076;17.046;2022-12-24T18:29:57;100111.84;;;9.49;84.29
31717;BME280;18301;51.076;17.046;2022-12-24T18:34:58;100097.75;;;9.45;84.75
31717;BME280;18301;51.076;17.046;2022-12-24T18:40:00;100094.75;;;9.37;85.19
31717;BME280;18301;51.076;17.046;2022-12-24T18:45:02;100097.00;;;9.43;84.63
31717;BME280;18301;51.076;17.046;2022-12-24T18:50:05;100098.03;;;9.54;84.85
31717;BME280;18301;51.076;17.046;2022-12-24T18:55:07;100098.56;;;9.59;84.79
31717;BME280;18301;51.076;17.046;2022-12-24T19:00:09;100107.19;;;9.51;84.83
31717;BME280;18301;51.076;17.046;2022-12-24T19:05:11;100112.94;;;9.47;85.42
31717;BME280;18301;51.076;17.046;2022-12-24T19:10:15;100114.31;;;9.52;84.41
31717;BME280;18301;51.076;17.046;2022-12-24T19:15:16;100124.25;;;9.52;84.60
31717;BME280;18301;51.076;17.046;2022-12-24T19:20:18;100134.59;;;9.45;85.42
31717;BME280;18301;51.076;17.046;2022-12-24T19:25:19;100144.50;;;9.44;85.42
31717;BME280;18301;51.076;17.046;2022-12-24T19:30:21;100151.63;;;9.45;85.73
31717;BME280;18301;51.076;17.046;2022-12-24T19:35:22;100164.75;;;9.50;86.14
31717;BME280;18301;51.076;17.046;2022-12-24T19:40:24;100165.81;;;9.48;86.12
31717;BME280;18301;51.076;17.046;2022-12-24T19:45:26;100166.06;;;9.44;85.79
31717;BME280;18301;51.076;17.046;2022-12-24T19:50:27;100147.19;;;9.44;86.17
31717;BME280;18301;51.076;17.046;2022-12-24T19:55:30;100161.22;;;9.37;86.38
31717;BME280;18301;51.076;17.046;2022-12-24T20:00:31;100169.34;;;9.24;86.58
31717;BME280;18301;51.076;17.046;2022-12-24T20:05:33;100179.91;;;9.14;86.71
31717;BME280;18301;51.076;17.046;2022-12-24T20:10:39;100175.72;;;8.97;86.71
31717;BME280;18301;51.076;17.046;2022-12-24T20:15:42;100193.69;;;8.84;87.06
31717;BME280;18301;51.076;17.046;2022-12-24T20:20:43;100201.88;;;8.70;87.30
31717;BME280;18301;51.076;17.046;2022-12-24T20:25:45;100211.53;;;8.60;87.49
31717;BME280;18301;51.076;17.046;2022-12-24T20:30:46;100226.47;;;8.51;87.84
31717;BME280;18301;51.076;17.046;2022-12-24T20:35:48;100227.97;;;8.42;88.17
31717;BME280;18301;51.076;17.046;2022-12-24T20:40:54;100220.88;;;8.41;88.15
31717;BME280;18301;51.076;17.046;2022-12-24T20:45:57;100229.88;;;8.40;88.40
31717;BME280;18301;51.076;17.046;2022-12-24T20:50:59;100222.78;;;8.39;88.38
31717;BME280;18301;51.076;17.046;2022-12-24T20:56:01;100227.97;;;8.42;88.77
31717;BME280;18301;51.076;17.046;2022-12-24T21:01:20;100217.91;;;8.32;88.99
31717;BME280;18301;51.076;17.046;2022-12-24T21:06:24;100232.56;;;8.40;89.37
31717;BME280;18301;51.076;17.046;2022-12-24T21:11:26;100235.16;;;8.42;89.53
31717;BME280;18301;51.076;17.046;2022-12-24T21:16:46;100232.41;;;8.56;89.61
31717;BME280;18301;51.076;17.046;2022-12-24T21:21:49;100237.03;;;8.67;89.15
31717;BME280;18301;51.076;17.046;2022-12-24T21:26:50;100235.19;;;8.55;89.12
31717;BME280;18301;51.076;17.046;2022-12-24T21:31:52;100236.38;;;8.50;88.92
31717;BME280;18301;51.076;17.046;2022-12-24T21:36:53;100248.84;;;8.51;88.88
31717;BME280;18301;51.076;17.046;2022-12-24T21:41:55;100235.81;;;8.45;88.78
31717;BME280;18301;51.076;17.046;2022-12-24T21:46:57;100251.19;;;8.43;89.05
31717;BME280;18301;51.076;17.046;2022-12-24T21:51:58;100249.47;;;8.42;89.24
31717;BME280;18301;51.076;17.046;2022-12-24T21:57:03;100255.41;;;8.47;89.59
31717;BME280;18301;51.076;17.046;2022-12-24T22:02:24;100262.09;;;8.55;89.71
31717;BME280;18301;51.076;17.046;2022-12-24T22:07:28;100252.84;;;8.59;89.74
31717;BME280;18301;51.076;17.046;2022-12-24T22:12:49;100266.06;;;8.62;89.66
31717;BME280;18301;51.076;17.046;2022-12-24T22:17:50;100265.13;;;8.63;89.61
31717;BME280;18301;51.076;17.046;2022-12-24T22:22:52;100258.00;;;8.62;89.22
31717;BME280;18301;51.076;17.046;2022-12-24T22:27:53;100271.47;;;8.62;89.35
31717;BME280;18301;51.076;17.046;2022-12-24T22:32:56;100256.72;;;8.55;88.85
31717;BME280;18301;51.076;17.046;2022-12-24T22:37:58;100256.47;;;8.45;88.77
31717;BME280;18301;51.076;17.046;2022-12-24T22:43:00;100269.28;;;8.41;88.74
31717;BME280;18301;51.076;17.046;2022-12-24T22:48:02;100270.38;;;8.37;89.22
31717;BME280;18301;51.076;17.046;2022-12-24T22:53:03;100283.56;;;8.42;89.12
31717;BME280;18301;51.076;17.046;2022-12-24T22:58:05;100292.09;;;8.48;88.99
31717;BME280;18301;51.076;17.046;2022-12-24T23:03:07;100290.25;;;8.49;89.14
31717;BME280;18301;51.076;17.046;2022-12-24T23:08:10;100291.03;;;8.37;89.23
31717;BME280;18301;51.076;17.046;2022-12-24T23:13:13;100295.31;;;8.26;89.03
31717;BME280;18301;51.076;17.046;2022-12-24T23:18:33;100303.84;;;8.19;89.04
31717;BME280;18301;51.076;17.046;2022-12-24T23:23:34;100313.09;;;8.15;89.01
31717;BME280;18301;51.076;17.046;2022-12-24T23:28:38;100318.66;;;8.12;89.07
31717;BME280;18301;51.076;17.046;2022-12-24T23:33:40;100333.09;;;8.11;89.07
31717;BME280;18301;51.076;17.046;2022-12-24T23:38:41;100335.00;;;8.08;89.62
31717;BME280;18301;51.076;17.046;2022-12-24T23:43:44;100338.75;;;8.06;90.45
31717;BME280;18301;51.076;17.046;2022-12-24T23:48:46;100350.94;;;8.12;90.68
31717;BME280;18301;51.076;17.046;2022-12-24T23:53:49;100359.38;;;8.20;90.76
31717;BME280;18301;51.076;17.046;2022-12-24T23:58:50;100358.91;;;8.13;90.49
